createdAt,value
2019-04-14T00:00:29.961Z,30.39
2019-04-14T00:01:32.286Z,30.32
2019-04-14T00:02:34.602Z,30.26
2019-04-14T00:03:36.784Z,30.39
2019-04-14T00:04:39.132Z,30.46
2019-04-14T00:05:41.331Z,30.46
2019-04-14T00:06:43.628Z,30.27
2019-04-14T00:07:45.896Z,30.42
2019-04-14T00:08:48.157Z,30.4
2019-04-14T00:09:52.673Z,30.5
2019-04-14T00:10:52.710Z,30.53
2019-04-14T00:11:54.976Z,30.62
2019-04-14T00:12:57.290Z,30.54
2019-04-14T00:13:59.535Z,30.51
2019-04-14T00:15:01.888Z,30.61
2019-04-14T00:16:04.075Z,30.59
2019-04-14T00:17:06.478Z,30.59
2019-04-14T00:18:08.618Z,30.52
2019-04-14T00:19:10.891Z,30.54
2019-04-14T00:20:13.257Z,30.46
2019-04-14T00:21:18.097Z,30.6
2019-04-14T00:22:17.718Z,30.65
2019-04-14T00:23:19.982Z,30.56
2019-04-14T00:24:22.260Z,30.54
2019-04-14T00:25:24.807Z,30.59
2019-04-14T00:26:29.953Z,30.61
2019-04-14T00:27:29.186Z,30.61
2019-04-14T00:28:31.346Z,30.63
2019-04-14T00:29:33.616Z,30.6
2019-04-14T00:30:35.996Z,30.64
2019-04-14T00:31:38.160Z,30.62
2019-04-14T00:32:40.441Z,30.57
2019-04-14T00:33:42.732Z,30.64
2019-04-14T00:34:45.218Z,30.65
2019-04-14T00:35:47.281Z,30.69
2019-04-14T00:36:53.327Z,30.67
2019-04-14T00:37:51.885Z,30.76
2019-04-14T00:38:54.094Z,30.69
2019-04-14T00:39:56.390Z,30.67
2019-04-14T00:40:59.221Z,30.74
2019-04-14T00:42:00.927Z,30.69
2019-04-14T00:43:03.228Z,30.71
2019-04-14T00:44:05.455Z,30.78
2019-04-14T00:45:07.723Z,30.77
2019-04-14T00:46:11.200Z,30.73
2019-04-14T00:47:12.269Z,30.69
2019-04-14T00:48:14.541Z,30.76
2019-04-14T00:49:16.847Z,30.7
2019-04-14T00:50:19.084Z,30.74
2019-04-14T00:51:21.434Z,30.79
2019-04-14T00:52:23.642Z,30.78
2019-04-14T00:53:25.904Z,30.89
2019-04-14T00:54:28.296Z,30.82
2019-04-14T00:55:30.550Z,30.82
2019-04-14T00:56:36.260Z,30.8
2019-04-14T00:57:35.173Z,30.8
2019-04-14T00:58:37.366Z,30.83
2019-04-14T00:59:39.651Z,30.86
2019-04-14T01:00:41.996Z,30.84
2019-04-14T01:01:44.192Z,30.83
2019-04-14T01:02:49.122Z,30.87
2019-04-14T01:03:48.718Z,30.85
2019-04-14T01:04:51.048Z,30.81
2019-04-14T01:05:53.380Z,30.76
2019-04-14T01:06:55.615Z,30.84
2019-04-14T01:07:57.856Z,30.94
2019-04-14T01:09:00.091Z,30.89
2019-04-14T01:10:02.374Z,30.95
2019-04-14T01:11:04.679Z,30.83
2019-04-14T01:12:07.036Z,30.86
2019-04-14T01:13:09.278Z,30.81
2019-04-14T01:14:11.556Z,30.77
2019-04-14T01:15:13.825Z,30.84
2019-04-14T01:16:16.100Z,30.89
2019-04-14T01:17:18.359Z,30.88
2019-04-14T01:18:20.636Z,30.87
2019-04-14T01:19:22.902Z,30.84
2019-04-14T01:20:25.180Z,30.87
2019-04-14T01:21:27.463Z,30.94
2019-04-14T01:22:29.851Z,30.95
2019-04-14T01:23:32.067Z,30.91
2019-04-14T01:24:34.272Z,30.88
2019-04-14T01:25:36.594Z,30.94
2019-04-14T01:26:38.913Z,30.87
2019-04-14T01:27:41.111Z,30.92
2019-04-14T01:28:43.446Z,31
2019-04-14T01:30:47.914Z,30.98
2019-04-14T01:31:50.277Z,30.91
2019-04-14T01:32:52.478Z,30.89
2019-04-14T01:33:54.740Z,30.85
2019-04-14T01:34:57.046Z,30.86
2019-04-14T01:35:59.364Z,30.88
2019-04-14T01:37:05.689Z,30.99
2019-04-14T01:38:03.819Z,30.89
2019-04-14T01:39:06.244Z,31.04
2019-04-14T01:40:08.448Z,30.95
2019-04-14T01:41:10.776Z,30.97
2019-04-14T01:42:12.905Z,31.03
2019-04-14T01:43:15.202Z,31.02
2019-04-14T01:44:17.447Z,30.93
2019-04-14T01:45:19.736Z,30.92
2019-04-14T01:46:22.008Z,31.01
2019-04-14T01:47:24.316Z,31.03
2019-04-14T01:48:26.638Z,31.04
2019-04-14T01:49:28.834Z,31.08
2019-04-14T01:50:31.085Z,31.07
2019-04-14T01:51:33.356Z,31.04
2019-04-14T01:52:35.642Z,30.98
2019-04-14T01:53:37.898Z,31.04
2019-04-14T01:54:40.230Z,31.07
2019-04-14T01:55:42.461Z,31.12
2019-04-14T01:56:44.717Z,31.11
2019-04-14T01:57:47.093Z,31.05
2019-04-14T01:58:49.292Z,31.11
2019-04-14T01:59:51.575Z,31.05
2019-04-14T02:00:53.847Z,31
2019-04-14T02:01:56.100Z,31.05
2019-04-14T02:02:58.345Z,30.96
2019-04-14T02:04:00.619Z,31
2019-04-14T02:05:02.889Z,31.04
2019-04-14T02:06:05.205Z,31.09
2019-04-14T02:07:07.450Z,31.11
2019-04-14T02:08:09.713Z,31.09
2019-04-14T02:09:11.995Z,31.16
2019-04-14T02:10:14.265Z,31.15
2019-04-14T02:11:16.655Z,31.13
2019-04-14T02:12:18.841Z,31.19
2019-04-14T02:13:21.056Z,31.18
2019-04-14T02:14:23.355Z,31.19
2019-04-14T02:15:25.768Z,31.15
2019-04-14T02:16:27.963Z,31.22
2019-04-14T02:17:30.312Z,31.11
2019-04-14T02:18:32.838Z,31.17
2019-04-14T02:19:34.803Z,31.21
2019-04-14T02:20:37.066Z,31.18
2019-04-14T02:21:39.443Z,31.22
2019-04-14T02:22:41.639Z,31.2
2019-04-14T02:23:43.863Z,31.23
2019-04-14T02:24:46.171Z,31.18
2019-04-14T02:25:48.410Z,31.15
2019-04-14T02:26:50.784Z,31.21
2019-04-14T02:27:52.958Z,31.26
2019-04-14T02:28:55.227Z,31.23
2019-04-14T02:29:57.496Z,31.28
2019-04-14T02:30:59.786Z,31.27
2019-04-14T02:32:02.135Z,31.3
2019-04-14T02:33:04.500Z,31.24
2019-04-14T02:34:06.718Z,31.31
2019-04-14T02:35:08.887Z,31.29
2019-04-14T02:36:11.209Z,31.31
2019-04-14T02:37:13.398Z,31.34
2019-04-14T02:38:15.677Z,31.4
2019-04-14T02:39:17.950Z,31.28
2019-04-14T02:40:20.299Z,31.21
2019-04-14T02:41:22.487Z,31.25
2019-04-14T02:42:24.780Z,31.33
2019-04-14T02:43:27.017Z,31.27
2019-04-14T02:44:29.300Z,31.3
2019-04-14T02:45:31.589Z,31.27
2019-04-14T02:46:33.832Z,31.29
2019-04-14T02:47:40.002Z,31.32
2019-04-14T02:48:38.383Z,31.24
2019-04-14T02:49:40.702Z,31.32
2019-04-14T02:50:42.926Z,31.22
2019-04-14T02:51:45.224Z,31.29
2019-04-14T02:52:47.471Z,31.38
2019-04-14T02:53:49.808Z,31.33
2019-04-14T02:54:52.020Z,31.38
2019-04-14T02:55:54.287Z,31.38
2019-04-14T02:56:56.679Z,31.4
2019-04-14T02:57:58.836Z,31.33
2019-04-14T02:59:01.173Z,31.37
2019-04-14T03:00:03.401Z,31.29
2019-04-14T03:01:05.805Z,31.3
2019-04-14T03:02:07.926Z,31.4
2019-04-14T03:03:10.215Z,31.36
2019-04-14T03:04:12.469Z,31.44
2019-04-14T03:05:14.826Z,31.43
2019-04-14T03:06:17.032Z,31.48
2019-04-14T03:07:19.290Z,31.48
2019-04-14T03:08:21.645Z,31.43
2019-04-14T03:09:23.845Z,31.47
2019-04-14T03:10:26.109Z,31.5
2019-04-14T03:11:28.353Z,31.45
2019-04-14T03:12:30.628Z,31.41
2019-04-14T03:13:34.857Z,31.5
2019-04-14T03:14:35.219Z,31.55
2019-04-14T03:15:37.449Z,31.56
2019-04-14T03:16:39.831Z,31.6
2019-04-14T03:17:42.014Z,31.49
2019-04-14T03:18:47.744Z,31.53
2019-04-14T03:19:46.652Z,31.53
2019-04-14T03:20:48.922Z,31.48
2019-04-14T03:21:51.169Z,31.46
2019-04-14T03:22:53.451Z,31.49
2019-04-14T03:23:55.770Z,31.48
2019-04-14T03:24:58.021Z,31.43
2019-04-14T03:26:00.276Z,31.46
2019-04-14T03:27:02.533Z,31.42
2019-04-14T03:28:04.862Z,31.42
2019-04-14T03:29:07.062Z,31.41
2019-04-14T03:30:09.354Z,31.47
2019-04-14T03:31:11.692Z,31.45
2019-04-14T03:32:14.021Z,31.44
2019-04-14T03:33:16.154Z,31.45
2019-04-14T03:34:18.470Z,31.39
2019-04-14T03:35:20.689Z,31.41
2019-04-14T03:36:23.004Z,31.44
2019-04-14T03:37:25.297Z,31.42
2019-04-14T03:38:27.668Z,31.38
2019-04-14T03:39:29.920Z,31.45
2019-04-14T03:40:32.207Z,31.45
2019-04-14T03:41:34.477Z,31.47
2019-04-14T03:42:36.734Z,31.46
2019-04-14T03:43:39.025Z,31.45
2019-04-14T03:44:41.322Z,31.48
2019-04-14T03:45:43.582Z,31.45
2019-04-14T03:46:45.858Z,31.43
2019-04-14T03:47:48.111Z,31.45
2019-04-14T03:48:50.583Z,31.45
2019-04-14T03:49:52.651Z,31.42
2019-04-14T03:50:54.914Z,31.48
2019-04-14T03:51:57.228Z,31.45
2019-04-14T03:52:59.455Z,31.43
2019-04-14T03:54:01.767Z,31.4
2019-04-14T03:55:03.989Z,31.41
2019-04-14T03:56:06.266Z,31.44
2019-04-14T03:57:08.546Z,31.41
2019-04-14T03:58:10.836Z,31.45
2019-04-14T03:59:13.084Z,31.47
2019-04-14T04:00:15.393Z,31.5
2019-04-14T04:01:19.220Z,31.46
2019-04-14T04:02:19.907Z,31.44
2019-04-14T04:03:22.182Z,31.42
2019-04-14T04:04:24.457Z,31.49
2019-04-14T04:05:26.737Z,31.4
2019-04-14T04:06:29.000Z,31.3
2019-04-14T04:07:31.277Z,31.34
2019-04-14T04:08:33.527Z,31.47
2019-04-14T04:09:35.856Z,31.48
2019-04-14T04:10:38.153Z,31.46
2019-04-14T04:11:40.557Z,31.52
2019-04-14T04:12:42.638Z,31.44
2019-04-14T04:13:44.892Z,31.41
2019-04-14T04:14:47.172Z,31.39
2019-04-14T04:15:49.453Z,31.46
2019-04-14T04:16:51.707Z,31.53
2019-04-14T04:17:54.138Z,31.54
2019-04-14T04:18:56.344Z,31.58
2019-04-14T04:19:58.565Z,31.55
2019-04-14T04:21:00.825Z,31.46
2019-04-14T04:22:03.177Z,31.46
2019-04-14T04:23:05.468Z,31.42
2019-04-14T04:24:07.706Z,31.47
2019-04-14T04:25:09.972Z,31.48
2019-04-14T04:26:12.242Z,31.5
2019-04-14T04:27:14.609Z,31.47
2019-04-14T04:28:16.819Z,31.59
2019-04-14T04:29:19.065Z,31.55
2019-04-14T04:30:21.381Z,31.6
2019-04-14T04:31:23.612Z,31.55
2019-04-14T04:32:25.879Z,31.58
2019-04-14T04:33:28.143Z,31.6
2019-04-14T04:34:30.465Z,31.62
2019-04-14T04:35:32.690Z,31.63
2019-04-14T04:36:35.132Z,31.56
2019-04-14T04:37:37.276Z,31.61
2019-04-14T04:38:39.515Z,31.64
2019-04-14T04:39:41.769Z,31.62
2019-04-14T04:40:44.054Z,31.52
2019-04-14T04:41:46.333Z,31.57
2019-04-14T04:42:48.597Z,31.61
2019-04-14T04:43:50.873Z,31.61
2019-04-14T04:44:53.243Z,31.67
2019-04-14T04:45:55.413Z,31.6
2019-04-14T04:46:57.693Z,31.56
2019-04-14T04:48:00.058Z,31.64
2019-04-14T04:49:02.243Z,31.64
2019-04-14T04:50:04.491Z,31.56
2019-04-14T04:51:06.798Z,31.65
2019-04-14T04:52:09.047Z,31.59
2019-04-14T04:53:11.407Z,31.58
2019-04-14T04:54:13.609Z,31.61
2019-04-14T04:55:15.987Z,31.59
2019-04-14T04:56:18.392Z,31.61
2019-04-14T04:57:20.414Z,31.63
2019-04-14T04:58:22.684Z,31.67
2019-04-14T04:59:24.957Z,31.66
2019-04-14T05:00:27.219Z,31.67
2019-04-14T05:01:29.498Z,31.67
2019-04-14T05:02:31.779Z,31.61
2019-04-14T05:03:34.058Z,31.63
2019-04-14T05:04:36.467Z,31.63
2019-04-14T05:05:38.599Z,31.65
2019-04-14T05:06:40.997Z,31.63
2019-04-14T05:07:43.151Z,31.67
2019-04-14T05:08:45.400Z,31.74
2019-04-14T05:09:47.672Z,31.85
2019-04-14T05:10:49.946Z,31.78
2019-04-14T05:11:52.279Z,31.73
2019-04-14T05:12:54.494Z,31.74
2019-04-14T05:13:56.850Z,31.86
2019-04-14T05:14:59.161Z,31.86
2019-04-14T05:16:01.308Z,31.88
2019-04-14T05:17:03.597Z,31.81
2019-04-14T05:18:05.882Z,31.86
2019-04-14T05:19:08.133Z,31.87
2019-04-14T05:20:10.381Z,31.86
2019-04-14T05:21:12.789Z,31.91
2019-04-14T05:22:14.949Z,31.86
2019-04-14T05:23:17.196Z,31.85
2019-04-14T05:24:19.581Z,31.89
2019-04-14T05:25:21.842Z,31.93
2019-04-14T05:26:24.128Z,31.94
2019-04-14T05:27:26.397Z,31.89
2019-04-14T05:28:28.661Z,31.92
2019-04-14T05:29:31.125Z,31.94
2019-04-14T05:30:33.212Z,31.88
2019-04-14T05:31:35.496Z,31.89
2019-04-14T05:32:37.928Z,31.91
2019-04-14T05:33:40.007Z,31.92
2019-04-14T05:34:42.276Z,31.87
2019-04-14T05:35:44.550Z,31.9
2019-04-14T05:36:46.829Z,31.87
2019-04-14T05:37:49.190Z,31.93
2019-04-14T05:38:51.410Z,31.89
2019-04-14T05:39:53.668Z,31.9
2019-04-14T05:40:55.901Z,31.92
2019-04-14T05:41:58.219Z,31.94
2019-04-14T05:43:00.448Z,32.01
2019-04-14T05:44:02.733Z,32.01
2019-04-14T05:45:05.047Z,31.99
2019-04-14T05:46:07.324Z,31.92
2019-04-14T05:47:09.575Z,31.9
2019-04-14T05:48:11.824Z,31.92
2019-04-14T05:49:19.273Z,31.96
2019-04-14T05:50:16.347Z,31.87
2019-04-14T05:51:18.661Z,31.96
2019-04-14T05:52:20.900Z,31.94
2019-04-14T05:53:23.184Z,32.05
2019-04-14T05:54:25.453Z,31.99
2019-04-14T05:55:27.725Z,32.01
2019-04-14T05:56:30.094Z,31.98
2019-04-14T05:57:32.279Z,32.06
2019-04-14T05:58:34.626Z,32.02
2019-04-14T05:59:36.906Z,31.98
2019-04-14T06:00:39.083Z,32.04
2019-04-14T06:01:41.395Z,32.05
2019-04-14T06:02:43.737Z,32.01
2019-04-14T06:03:46.006Z,32.04
2019-04-14T06:04:51.403Z,32.04
2019-04-14T06:05:51.882Z,32.1
2019-04-14T06:06:52.859Z,32.12
2019-04-14T06:07:55.008Z,32.08
2019-04-14T06:08:57.258Z,32.1
2019-04-14T06:09:59.522Z,31.88
2019-04-14T06:11:01.794Z,32
2019-04-14T06:12:04.069Z,32.02
2019-04-14T06:13:06.376Z,31.87
2019-04-14T06:14:08.612Z,31.82
2019-04-14T06:15:10.941Z,31.87
2019-04-14T06:16:13.155Z,31.8
2019-04-14T06:17:15.514Z,31.85
2019-04-14T06:18:17.775Z,31.84
2019-04-14T06:19:20.053Z,31.79
2019-04-14T06:20:22.460Z,31.85
2019-04-14T06:21:24.517Z,31.79
2019-04-14T06:22:26.785Z,31.65
2019-04-14T06:23:29.141Z,31.64
2019-04-14T06:24:31.367Z,31.52
2019-04-14T06:25:33.757Z,31.57
2019-04-14T06:26:35.896Z,31.61
2019-04-14T06:27:38.156Z,31.57
2019-04-14T06:28:40.571Z,31.59
2019-04-14T06:29:42.702Z,31.59
2019-04-14T06:30:44.971Z,31.58
2019-04-14T06:31:47.236Z,31.63
2019-04-14T06:32:49.707Z,31.63
2019-04-14T06:33:51.796Z,31.68
2019-04-14T06:34:55.709Z,31.67
2019-04-14T06:35:56.328Z,31.65
2019-04-14T06:36:58.637Z,31.58
2019-04-14T06:38:00.938Z,31.59
2019-04-14T06:39:03.155Z,31.56
2019-04-14T06:40:05.424Z,31.54
2019-04-14T06:41:07.705Z,31.54
2019-04-14T06:42:09.970Z,31.58
2019-04-14T06:43:12.384Z,31.59
2019-04-14T06:44:14.510Z,31.61
2019-04-14T06:45:16.920Z,31.54
2019-04-14T06:46:19.102Z,31.63
2019-04-14T06:47:21.407Z,31.61
2019-04-14T06:48:23.622Z,31.62
2019-04-14T06:49:25.871Z,31.65
2019-04-14T06:50:28.217Z,31.76
2019-04-14T06:51:30.408Z,31.71
2019-04-14T06:52:32.690Z,31.7
2019-04-14T06:53:34.999Z,31.68
2019-04-14T06:54:37.229Z,31.73
2019-04-14T06:55:39.501Z,31.71
2019-04-14T06:56:41.849Z,31.63
2019-04-14T06:57:44.073Z,31.71
2019-04-14T06:58:46.322Z,31.75
2019-04-14T06:59:48.662Z,31.66
2019-04-14T07:00:51.054Z,31.69
2019-04-14T07:01:53.145Z,31.67
2019-04-14T07:02:55.418Z,31.68
2019-04-14T07:03:57.700Z,31.7
2019-04-14T07:04:59.966Z,31.71
2019-04-14T07:06:02.229Z,31.71
2019-04-14T07:07:04.638Z,31.63
2019-04-14T07:08:06.781Z,31.59
2019-04-14T07:09:09.055Z,31.6
2019-04-14T07:10:11.330Z,31.6
2019-04-14T07:11:13.614Z,31.56
2019-04-14T07:12:15.876Z,31.6
2019-04-14T07:13:18.218Z,31.47
2019-04-14T07:14:20.404Z,31.51
2019-04-14T07:15:25.129Z,31.41
2019-04-14T07:16:25.059Z,31.54
2019-04-14T07:17:27.227Z,31.4
2019-04-14T07:18:29.497Z,31.43
2019-04-14T07:19:34.318Z,31.46
2019-04-14T07:20:34.046Z,31.57
2019-04-14T07:21:36.391Z,31.58
2019-04-14T07:22:38.593Z,31.53
2019-04-14T07:23:40.857Z,31.5
2019-04-14T07:24:43.192Z,31.4
2019-04-14T07:25:45.530Z,31.38
2019-04-14T07:26:47.708Z,31.5
2019-04-14T07:27:50.012Z,31.35
2019-04-14T07:28:52.322Z,31.54
2019-04-14T07:29:54.485Z,31.56
2019-04-14T07:30:56.781Z,31.38
2019-04-14T07:31:59.054Z,31.37
2019-04-14T07:33:01.323Z,31.33
2019-04-14T07:34:03.683Z,31.23
2019-04-14T07:35:06.075Z,31.18
2019-04-14T07:36:08.287Z,31.23
2019-04-14T07:37:10.398Z,31.46
2019-04-14T07:38:12.753Z,31.43
2019-04-14T07:39:15.035Z,31.45
2019-04-14T07:40:17.345Z,31.5
2019-04-14T07:41:19.480Z,31.59
2019-04-14T07:42:21.862Z,31.5
2019-04-14T07:43:24.009Z,31.48
2019-04-14T07:44:26.429Z,31.4
2019-04-14T07:45:28.631Z,31.24
2019-04-14T07:46:30.850Z,31.4
2019-04-14T07:47:33.177Z,31.46
2019-04-14T07:48:35.464Z,31.46
2019-04-14T07:49:37.673Z,31.43
2019-04-14T07:50:39.964Z,31.47
2019-04-14T07:51:42.211Z,31.43
2019-04-14T07:52:44.469Z,31.39
2019-04-14T07:53:51.126Z,31.5
2019-04-14T07:54:49.091Z,31.51
2019-04-14T07:55:51.404Z,31.47
2019-04-14T07:56:53.562Z,31.44
2019-04-14T07:57:55.928Z,31.5
2019-04-14T07:58:58.123Z,31.49
2019-04-14T08:00:00.498Z,31.55
2019-04-14T08:01:02.629Z,31.51
2019-04-14T08:02:04.917Z,31.54
2019-04-14T08:03:07.189Z,31.49
2019-04-14T08:04:09.545Z,31.48
2019-04-14T08:05:11.732Z,31.48
2019-04-14T08:06:14.003Z,31.52
2019-04-14T08:07:16.283Z,31.64
2019-04-14T08:08:18.675Z,31.58
2019-04-14T08:09:20.842Z,31.49
2019-04-14T08:10:23.127Z,31.48
2019-04-14T08:11:25.381Z,31.52
2019-04-14T08:12:27.621Z,31.53
2019-04-14T08:13:29.891Z,31.49
2019-04-14T08:14:32.166Z,31.43
2019-04-14T08:15:34.519Z,31.35
2019-04-14T08:16:36.707Z,31.34
2019-04-14T08:17:39.015Z,31.26
2019-04-14T08:18:41.281Z,31.45
2019-04-14T08:19:43.610Z,31.47
2019-04-14T08:20:45.815Z,31.47
2019-04-14T08:21:48.181Z,31.52
2019-04-14T08:22:50.381Z,31.42
2019-04-14T08:23:52.642Z,31.45
2019-04-14T08:24:54.919Z,31.42
2019-04-14T08:25:57.177Z,31.4
2019-04-14T08:26:59.437Z,31.39
2019-04-14T08:28:01.771Z,31.46
2019-04-14T08:29:03.995Z,31.42
2019-04-14T08:30:06.289Z,31.4
2019-04-14T08:31:08.513Z,31.43
2019-04-14T08:32:10.788Z,31.46
2019-04-14T08:33:13.096Z,31.53
2019-04-14T08:34:15.456Z,31.55
2019-04-14T08:35:17.686Z,31.51
2019-04-14T08:36:19.910Z,31.57
2019-04-14T08:37:26.816Z,31.42
2019-04-14T08:38:24.440Z,31.12
2019-04-14T08:39:26.744Z,31.5
2019-04-14T08:40:28.988Z,31.79
2019-04-14T08:41:31.252Z,31.9
2019-04-14T08:42:33.521Z,31.69
2019-04-14T08:43:35.888Z,31.69
2019-04-14T08:44:38.219Z,31.61
2019-04-14T08:45:40.344Z,31.57
2019-04-14T08:46:42.618Z,31.58
2019-04-14T08:47:44.891Z,31.56
2019-04-14T08:48:47.226Z,31.55
2019-04-14T08:49:49.524Z,31.49
2019-04-14T08:50:51.698Z,31.57
2019-04-14T08:51:54.033Z,31.5
2019-04-14T08:52:56.298Z,31.52
2019-04-14T08:53:58.530Z,31.47
2019-04-14T08:55:00.800Z,31.5
2019-04-14T08:56:03.055Z,31.5
2019-04-14T08:57:05.360Z,31.51
2019-04-14T08:58:07.662Z,31.53
2019-04-14T08:59:09.874Z,31.54
2019-04-14T09:00:12.466Z,31.48
2019-04-14T09:01:14.465Z,31.42
2019-04-14T09:02:16.831Z,31.49
2019-04-14T09:03:19.044Z,31.54
2019-04-14T09:04:21.337Z,31.48
2019-04-14T09:05:23.904Z,31.48
2019-04-14T09:06:25.822Z,31.45
2019-04-14T09:07:28.141Z,31.49
2019-04-14T09:08:30.345Z,31.43
2019-04-14T09:09:32.685Z,31.41
2019-04-14T09:10:35.006Z,31.41
2019-04-14T09:11:37.195Z,31.48
2019-04-14T09:12:39.564Z,31.54
2019-04-14T09:13:41.813Z,31.54
2019-04-14T09:14:43.973Z,31.5
2019-04-14T09:15:46.387Z,31.46
2019-04-14T09:16:48.583Z,31.54
2019-04-14T09:17:50.804Z,31.49
2019-04-14T09:18:53.063Z,31.57
2019-04-14T09:19:55.400Z,31.49
2019-04-14T09:20:57.690Z,31.47
2019-04-14T09:21:59.903Z,31.52
2019-04-14T09:23:02.237Z,31.57
2019-04-14T09:24:04.471Z,31.69
2019-04-14T09:25:06.771Z,31.53
2019-04-14T09:26:08.967Z,31.47
2019-04-14T09:27:11.247Z,31.56
2019-04-14T09:28:13.524Z,31.58
2019-04-14T09:29:15.793Z,31.61
2019-04-14T09:30:18.061Z,31.73
2019-04-14T09:31:20.370Z,31.61
2019-04-14T09:32:22.606Z,31.42
2019-04-14T09:33:24.989Z,31.4
2019-04-14T09:34:27.475Z,31.41
2019-04-14T09:35:29.419Z,31.56
2019-04-14T09:36:31.704Z,31.44
2019-04-14T09:37:33.983Z,31.41
2019-04-14T09:38:36.269Z,31.48
2019-04-14T09:39:38.570Z,31.62
2019-04-14T09:40:40.785Z,31.56
2019-04-14T09:41:43.088Z,31.62
2019-04-14T09:42:45.325Z,31.47
2019-04-14T09:43:49.175Z,31.37
2019-04-14T09:44:49.953Z,31.41
2019-04-14T09:45:52.181Z,31.47
2019-04-14T09:46:54.437Z,31.49
2019-04-14T09:47:56.696Z,31.43
2019-04-14T09:48:58.990Z,31.58
2019-04-14T09:50:01.222Z,31.61
2019-04-14T09:51:03.593Z,31.54
2019-04-14T09:52:05.903Z,31.51
2019-04-14T09:53:08.077Z,31.5
2019-04-14T09:54:10.313Z,31.53
2019-04-14T09:55:12.758Z,31.54
2019-04-14T09:56:14.920Z,31.62
2019-04-14T09:57:17.155Z,31.55
2019-04-14T09:58:19.442Z,31.65
2019-04-14T09:59:22.076Z,31.68
2019-04-14T10:00:23.960Z,31.71
2019-04-14T10:01:26.248Z,31.61
2019-04-14T10:02:28.489Z,31.51
2019-04-14T10:03:34.591Z,31.67
2019-04-14T10:04:33.032Z,31.62
2019-04-14T10:05:35.349Z,31.64
2019-04-14T10:06:37.681Z,31.7
2019-04-14T10:07:39.845Z,31.63
2019-04-14T10:08:42.126Z,31.64
2019-04-14T10:09:44.474Z,31.62
2019-04-14T10:10:46.786Z,31.66
2019-04-14T10:11:48.964Z,31.66
2019-04-14T10:12:51.212Z,31.71
2019-04-14T10:13:53.500Z,31.73
2019-04-14T10:14:55.923Z,31.7
2019-04-14T10:15:58.022Z,31.75
2019-04-14T10:17:00.381Z,31.82
2019-04-14T10:18:02.576Z,31.76
2019-04-14T10:19:04.848Z,31.76
2019-04-14T10:20:07.130Z,31.75
2019-04-14T10:21:09.546Z,31.87
2019-04-14T10:22:11.668Z,31.73
2019-04-14T10:23:13.940Z,31.85
2019-04-14T10:24:16.195Z,31.87
2019-04-14T10:25:18.470Z,31.9
2019-04-14T10:26:20.743Z,31.84
2019-04-14T10:27:23.141Z,31.81
2019-04-14T10:28:25.353Z,31.85
2019-04-14T10:29:27.564Z,31.94
2019-04-14T10:30:29.906Z,31.94
2019-04-14T10:31:32.104Z,31.89
2019-04-14T10:32:34.421Z,32.01
2019-04-14T10:33:36.695Z,31.96
2019-04-14T10:34:38.935Z,32.63
2019-04-14T10:35:41.188Z,32.38
2019-04-14T10:36:43.674Z,32.41
2019-04-14T10:37:45.809Z,32.29
2019-04-14T10:38:48.097Z,32.24
2019-04-14T10:39:50.334Z,32.19
2019-04-14T10:40:52.896Z,32.01
2019-04-14T10:41:54.883Z,31.92
2019-04-14T10:42:57.198Z,31.94
2019-04-14T10:43:59.386Z,31.95
2019-04-14T10:45:01.801Z,32.03
2019-04-14T10:46:03.927Z,32.01
2019-04-14T10:47:06.190Z,32.06
2019-04-14T10:48:08.473Z,32.02
2019-04-14T10:49:10.747Z,32.05
2019-04-14T10:50:13.044Z,32.19
2019-04-14T10:51:15.315Z,31.97
2019-04-14T10:52:17.556Z,32.04
2019-04-14T10:53:19.880Z,31.92
2019-04-14T10:54:22.101Z,31.87
2019-04-14T10:55:24.378Z,31.95
2019-04-14T10:56:26.693Z,31.99
2019-04-14T10:57:28.926Z,31.99
2019-04-14T10:58:31.188Z,31.97
2019-04-14T10:59:33.503Z,32.01
2019-04-14T11:00:35.748Z,32.07
2019-04-14T11:01:38.067Z,32.06
2019-04-14T11:02:40.300Z,32.02
2019-04-14T11:03:42.612Z,32.22
2019-04-14T11:04:45.016Z,32.15
2019-04-14T11:05:47.235Z,32.07
2019-04-14T11:06:49.374Z,32.15
2019-04-14T11:07:54.047Z,31.9
2019-04-14T11:08:53.912Z,32.02
2019-04-14T11:09:56.244Z,32.01
2019-04-14T11:10:58.460Z,32.05
2019-04-14T11:12:00.822Z,32.09
2019-04-14T11:13:03.019Z,32.05
2019-04-14T11:14:05.441Z,32.05
2019-04-14T11:15:07.565Z,31.97
2019-04-14T11:16:09.829Z,31.92
2019-04-14T11:17:12.182Z,31.9
2019-04-14T11:18:14.387Z,31.86
2019-04-14T11:19:16.631Z,31.9
2019-04-14T11:20:18.908Z,31.88
2019-04-14T11:21:21.364Z,31.97
2019-04-14T11:22:23.491Z,31.95
2019-04-14T11:23:25.730Z,31.99
2019-04-14T11:24:27.999Z,31.97
2019-04-14T11:25:30.286Z,31.97
2019-04-14T11:26:32.551Z,32
2019-04-14T11:27:34.840Z,31.98
2019-04-14T11:28:37.088Z,31.94
2019-04-14T11:29:39.366Z,31.99
2019-04-14T11:30:42.163Z,31.9
2019-04-14T11:31:43.964Z,32
2019-04-14T11:32:46.182Z,31.96
2019-04-14T11:33:48.454Z,31.96
2019-04-14T11:34:50.725Z,32.06
2019-04-14T11:35:53.038Z,32.05
2019-04-14T11:36:55.275Z,31.94
2019-04-14T11:37:57.724Z,32.04
2019-04-14T11:39:03.031Z,32.01
2019-04-14T11:40:02.195Z,31.96
2019-04-14T11:41:04.396Z,31.94
2019-04-14T11:42:06.733Z,32
2019-04-14T11:43:08.902Z,32.06
2019-04-14T11:44:11.297Z,32.04
2019-04-14T11:45:13.514Z,32.03
2019-04-14T11:46:15.751Z,32.1
2019-04-14T11:47:18.098Z,32.06
2019-04-14T11:48:20.507Z,31.97
2019-04-14T11:49:22.640Z,32.08
2019-04-14T11:50:24.858Z,32.1
2019-04-14T11:51:27.120Z,32.04
2019-04-14T11:52:29.392Z,32.1
2019-04-14T11:53:31.669Z,32
2019-04-14T11:54:33.939Z,32.02
2019-04-14T11:55:36.332Z,32.13
2019-04-14T11:56:38.522Z,32.02
2019-04-14T11:57:40.905Z,32.03
2019-04-14T11:58:43.027Z,32.11
2019-04-14T11:59:45.303Z,32.14
2019-04-14T12:00:47.578Z,32.18
2019-04-14T12:01:49.888Z,32.13
2019-04-14T12:02:52.127Z,32.32
2019-04-14T12:03:54.406Z,32.19
2019-04-14T12:04:56.680Z,32.09
2019-04-14T12:05:58.955Z,32.31
2019-04-14T12:07:03.809Z,32.11
2019-04-14T12:08:03.571Z,32.12
2019-04-14T12:09:05.772Z,32.24
2019-04-14T12:10:08.052Z,32.16
2019-04-14T12:11:10.326Z,32.12
2019-04-14T12:12:12.621Z,32.25
2019-04-14T12:13:18.775Z,32.14
2019-04-14T12:14:17.139Z,32.16
2019-04-14T12:15:19.414Z,31.97
2019-04-14T12:16:21.752Z,32.17
2019-04-14T12:17:23.957Z,32.08
2019-04-14T12:18:26.237Z,32.21
2019-04-14T12:19:28.499Z,32.01
2019-04-14T12:20:30.867Z,32.25
2019-04-14T12:21:33.065Z,32.37
2019-04-14T12:22:35.468Z,32.28
2019-04-14T12:23:37.600Z,32.38
2019-04-14T12:24:39.877Z,32.33
2019-04-14T12:25:42.155Z,32.28
2019-04-14T12:26:44.425Z,32.39
2019-04-14T12:27:46.706Z,32.19
2019-04-14T12:28:48.974Z,32.26
2019-04-14T12:29:51.301Z,32.35
2019-04-14T12:30:53.509Z,32.29
2019-04-14T12:31:55.865Z,32.11
2019-04-14T12:32:58.057Z,32.14
2019-04-14T12:34:00.501Z,32.35
2019-04-14T12:35:02.621Z,32.23
2019-04-14T12:36:04.932Z,32.41
2019-04-14T12:37:08.430Z,32.35
2019-04-14T12:38:09.427Z,32.26
2019-04-14T12:39:11.690Z,32.31
2019-04-14T12:40:13.970Z,32.29
2019-04-14T12:41:16.257Z,32.14
2019-04-14T12:42:18.525Z,32.14
2019-04-14T12:43:20.783Z,32.24
2019-04-14T12:44:23.085Z,32.39
2019-04-14T12:45:25.385Z,32.19
2019-04-14T12:46:27.882Z,32.19
2019-04-14T12:47:29.888Z,32.14
2019-04-14T12:48:32.318Z,32.12
2019-04-14T12:49:38.247Z,32.18
2019-04-14T12:50:36.751Z,32.17
2019-04-14T12:51:38.996Z,32.3
2019-04-14T12:52:41.272Z,32.44
2019-04-14T12:53:43.641Z,32.37
2019-04-14T12:54:45.817Z,32.19
2019-04-14T12:55:48.546Z,32.26
2019-04-14T12:56:50.672Z,32.22
2019-04-14T12:57:52.628Z,32.3
2019-04-14T12:58:54.899Z,32.31
2019-04-14T12:59:57.193Z,32.49
2019-04-14T13:00:59.559Z,32.32
2019-04-14T13:02:01.732Z,32.2
2019-04-14T13:03:04.154Z,32.33
2019-04-14T13:04:06.745Z,32.16
2019-04-14T13:05:08.559Z,32.18
2019-04-14T13:06:10.912Z,31.95
2019-04-14T13:07:13.223Z,31.87
2019-04-14T13:08:15.395Z,32.09
2019-04-14T13:09:17.650Z,32.15
2019-04-14T13:10:19.919Z,32.16
2019-04-14T13:11:22.203Z,32.16
2019-04-14T13:12:24.464Z,32.04
2019-04-14T13:13:27.852Z,32.12
2019-04-14T13:14:29.012Z,32.61
2019-04-14T13:15:31.287Z,32.16
2019-04-14T13:16:33.558Z,32.24
2019-04-14T13:17:35.835Z,32.52
2019-04-14T13:18:38.982Z,32.58
2019-04-14T13:19:40.513Z,32.69
2019-04-14T13:20:42.648Z,32.53
2019-04-14T13:21:44.930Z,32.3
2019-04-14T13:22:47.205Z,32.38
2019-04-14T13:23:49.464Z,32.45
2019-04-14T13:24:51.840Z,32.52
2019-04-14T13:25:54.015Z,32.49